Time;durP1;ratioP1;P1;durP2;ratioP2;P2;SDS_P1;SDS_P2;PMS_P1;PMS_P2;Temp;Humidity;BMP_temperature;BMP_pressure;BME280_temperature;BME280_humidity;BME280_pressure;Samples;Min_cycle;Max_cycle;Signal;HPM_P1;HPM_P2
2021/10/04 00:01:51;;;;;;;3.40;0.65;;;;;;;;;;5039873;28;20041;-56
2021/10/04 00:04:17;;;;;;;2.13;0.60;;;;;;;;;;5055192;28;20204;-55
2021/10/04 00:06:43;;;;;;;4.35;0.95;;;;;;;;;;5038037;28;20525;-56
2021/10/04 00:09:08;;;;;;;4.40;0.60;;;;;;;;;;5037365;28;20048;-59
2021/10/04 00:11:34;;;;;;;4.22;0.70;;;;;;;;;;5036048;28;20037;-58
2021/10/04 00:14:00;;;;;;;2.75;0.80;;;;;;;;;;5034791;28;20048;-59
2021/10/04 00:16:26;;;;;;;5.38;0.80;;;;;;;;;;5034000;28;20143;-59
2021/10/04 00:18:52;;;;;;;4.45;0.60;;;;;;;;;;5034941;28;20042;-57
2021/10/04 00:21:18;;;;;;;3.67;1.00;;;;;;;;;;5035317;28;20048;-58
2021/10/04 00:23:44;;;;;;;1.42;0.50;;;;;;;;;;5036642;28;20051;-59
2021/10/04 00:26:10;;;;;;;3.90;0.75;;;;;;;;;;5034236;28;20029;-59
2021/10/04 00:28:36;;;;;;;5.65;0.80;;;;;;;;;;5034050;28;20049;-59
2021/10/04 00:31:02;;;;;;;3.63;0.70;;;;;;;;;;5036582;28;20032;-57
2021/10/04 00:33:28;;;;;;;4.65;1.20;;;;;;;;;;5027533;28;20039;-60
2021/10/04 00:35:53;;;;;;;4.75;0.88;;;;;;;;;;5033440;28;20052;-60
2021/10/04 00:38:19;;;;;;;2.85;0.88;;;;;;;;;;5033277;28;20026;-57
2021/10/04 00:40:45;;;;;;;4.68;0.85;;;;;;;;;;5035161;28;20040;-58
2021/10/04 00:43:11;;;;;;;2.45;0.65;;;;;;;;;;5043727;28;20445;-61
2021/10/04 00:45:37;;;;;;;8.35;0.90;;;;;;;;;;5031467;28;20045;-59
2021/10/04 00:48:04;;;;;;;3.58;0.70;;;;;;;;;;5034438;28;20060;-59
2021/10/04 00:50:30;;;;;;;3.15;0.55;;;;;;;;;;5032856;28;20152;-59
2021/10/04 00:52:56;;;;;;;4.45;0.65;;;;;;;;;;5034227;28;20056;-59
2021/10/04 00:55:22;;;;;;;6.00;0.88;;;;;;;;;;5032073;28;20515;-54
2021/10/04 00:57:48;;;;;;;9.32;1.20;;;;;;;;;;5032994;28;20498;-59
2021/10/04 01:00:16;;;;;;;6.75;1.23;;;;;;;;;;5033695;28;20025;-55
2021/10/04 01:02:42;;;;;;;6.28;1.10;;;;;;;;;;5032996;28;20052;-59
2021/10/04 01:05:09;;;;;;;5.25;1.08;;;;;;;;;;5031649;28;20048;-57
2021/10/04 01:07:35;;;;;;;12.27;1.77;;;;;;;;;;5047234;28;20099;-58
2021/10/04 01:10:02;;;;;;;7.50;1.55;;;;;;;;;;5036414;28;20120;-58
2021/10/04 01:12:28;;;;;;;11.48;1.10;;;;;;;;;;5035256;28;20116;-56
2021/10/04 01:14:54;;;;;;;2.67;0.88;;;;;;;;;;5033866;28;20067;-57
2021/10/04 01:17:19;;;;;;;4.55;1.00;;;;;;;;;;5035261;28;20045;-58
2021/10/04 01:19:45;;;;;;;10.85;1.70;;;;;;;;;;5033857;28;20048;-56
2021/10/04 01:22:12;;;;;;;7.15;1.15;;;;;;;;;;5034507;28;20068;-59
2021/10/04 01:24:38;;;;;;;3.75;1.00;;;;;;;;;;5033149;28;20045;-58
2021/10/04 01:27:04;;;;;;;5.43;1.20;;;;;;;;;;5033541;28;20448;-58
2021/10/04 01:29:30;;;;;;;3.88;1.02;;;;;;;;;;5033090;28;20794;-55
2021/10/04 01:31:56;;;;;;;2.67;0.60;;;;;;;;;;5032895;28;20432;-57
2021/10/04 01:34:22;;;;;;;9.50;1.48;;;;;;;;;;5031415;28;20043;-57
2021/10/04 01:36:48;;;;;;;1.75;0.43;;;;;;;;;;5033599;28;20130;-59
2021/10/04 01:39:14;;;;;;;6.22;1.02;;;;;;;;;;5033241;28;20122;-57
2021/10/04 01:41:40;;;;;;;6.82;1.20;;;;;;;;;;5037136;28;20045;-57
2021/10/04 01:44:06;;;;;;;3.13;0.90;;;;;;;;;;5034540;28;20610;-59
2021/10/04 01:46:32;;;;;;;5.80;1.00;;;;;;;;;;5032464;28;20045;-57
2021/10/04 01:48:58;;;;;;;5.45;0.82;;;;;;;;;;5034482;28;20041;-58
2021/10/04 01:51:23;;;;;;;7.22;1.20;;;;;;;;;;5035402;28;20052;-61
2021/10/04 01:53:49;;;;;;;3.30;0.82;;;;;;;;;;5036776;28;20160;-59
2021/10/04 01:56:15;;;;;;;7.30;1.02;;;;;;;;;;5033153;28;20072;-58
2021/10/04 01:58:42;;;;;;;4.40;1.00;;;;;;;;;;5033730;28;20041;-55
2021/10/04 02:01:08;;;;;;;8.02;1.23;;;;;;;;;;5032186;28;20041;-58
2021/10/04 02:03:33;;;;;;;6.05;1.02;;;;;;;;;;5031584;28;20041;-56
2021/10/04 02:06:19;;;;;;;16.60;1.17;;;;;;;;;;5014740;28;20045;-58
2021/10/04 02:08:45;;;;;;;5.63;0.80;;;;;;;;;;5015471;28;20042;-56
2021/10/04 02:11:11;;;;;;;9.32;1.40;;;;;;;;;;5015470;28;20044;-57
2021/10/04 02:13:37;;;;;;;8.07;1.38;;;;;;;;;;5013625;28;20068;-58
2021/10/04 02:16:03;;;;;;;7.45;1.20;;;;;;;;;;5014968;28;20660;-56
2021/10/04 02:18:30;;;;;;;4.05;0.73;;;;;;;;;;5013852;28;20033;-55
2021/10/04 02:20:56;;;;;;;5.72;1.38;;;;;;;;;;5015853;28;20099;-59
2021/10/04 02:23:22;;;;;;;6.32;1.40;;;;;;;;;;5014335;28;20052;-58
2021/10/04 02:25:49;;;;;;;5.25;1.27;;;;;;;;;;5017021;28;20052;-57
2021/10/04 02:28:15;;;;;;;8.93;1.60;;;;;;;;;;5016741;28;20045;-56
2021/10/04 02:30:41;;;;;;;6.97;1.27;;;;;;;;;;5015374;28;20123;-58
2021/10/04 02:33:07;;;;;;;7.15;1.52;;;;;;;;;;5018748;28;20053;-56
2021/10/04 02:35:34;;;;;;;7.25;1.40;;;;;;;;;;5018791;28;20045;-60
2021/10/04 02:38:00;;;;;;;9.02;1.65;;;;;;;;;;5019698;28;20056;-56
2021/10/04 02:40:26;;;;;;;7.05;1.30;;;;;;;;;;5022283;28;20369;-57
2021/10/04 02:42:52;;;;;;;6.03;1.67;;;;;;;;;;5006678;28;20034;-57
2021/10/04 02:45:19;;;;;;;8.45;1.67;;;;;;;;;;5037701;28;20045;-58
2021/10/04 02:47:46;;;;;;;5.30;1.15;;;;;;;;;;5039253;28;20052;-57
2021/10/04 02:50:14;;;;;;;9.30;1.60;;;;;;;;;;5036607;28;20118;-56
2021/10/04 02:52:40;;;;;;;8.80;1.60;;;;;;;;;;5036825;28;20562;-57
2021/10/04 02:55:06;;;;;;;6.63;1.48;;;;;;;;;;5033964;28;20054;-57
2021/10/04 02:57:32;;;;;;;11.70;1.70;;;;;;;;;;5033384;28;20057;-55
2021/10/04 02:59:58;;;;;;;14.95;1.67;;;;;;;;;;5033675;28;20037;-57
2021/10/04 03:02:25;;;;;;;3.30;1.23;;;;;;;;;;5026171;28;20056;-57
2021/10/04 03:04:51;;;;;;;6.47;1.33;;;;;;;;;;5037462;28;20042;-58
2021/10/04 03:07:17;;;;;;;3.92;1.05;;;;;;;;;;5036881;28;20185;-59
2021/10/04 03:09:43;;;;;;;5.45;1.33;;;;;;;;;;5035398;28;20037;-58
2021/10/04 03:12:08;;;;;;;5.50;1.55;;;;;;;;;;5035458;28;20039;-58
2021/10/04 03:14:34;;;;;;;13.18;1.67;;;;;;;;;;5036641;28;20918;-57
2021/10/04 03:17:03;;;;;;;6.47;1.50;;;;;;;;;;5037554;28;20148;-56
2021/10/04 03:19:29;;;;;;;6.80;1.38;;;;;;;;;;5036377;28;20044;-57
2021/10/04 03:21:55;;;;;;;5.43;1.10;;;;;;;;;;5035286;28;20038;-57
2021/10/04 03:24:21;;;;;;;6.75;1.13;;;;;;;;;;5033320;28;20076;-55
2021/10/04 03:26:47;;;;;;;4.47;1.05;;;;;;;;;;5045510;28;20037;-58
2021/10/04 03:29:16;;;;;;;7.55;1.10;;;;;;;;;;5036730;28;20052;-56
2021/10/04 03:31:43;;;;;;;3.38;0.75;;;;;;;;;;5034987;28;20556;-54
2021/10/04 03:34:09;;;;;;;4.20;0.90;;;;;;;;;;5035465;28;20040;-56
2021/10/04 03:36:35;;;;;;;4.97;1.10;;;;;;;;;;5034900;28;20037;-55
2021/10/04 03:39:01;;;;;;;9.52;1.27;;;;;;;;;;5033871;28;20393;-57
2021/10/04 03:41:27;;;;;;;8.60;1.15;;;;;;;;;;5034063;28;20768;-59
2021/10/04 03:43:53;;;;;;;4.85;1.35;;;;;;;;;;5033224;28;20037;-57
2021/10/04 03:46:19;;;;;;;11.93;1.25;;;;;;;;;;5031662;28;20033;-60
2021/10/04 03:48:44;;;;;;;3.88;1.05;;;;;;;;;;5040118;28;20037;-59
2021/10/04 03:51:10;;;;;;;7.15;1.23;;;;;;;;;;5040095;28;20687;-59
2021/10/04 03:53:36;;;;;;;3.72;1.08;;;;;;;;;;5039012;28;20045;-57
2021/10/04 03:56:02;;;;;;;3.53;0.98;;;;;;;;;;5039258;28;20470;-58
2021/10/04 03:58:28;;;;;;;7.43;1.23;;;;;;;;;;5045176;28;20052;-54
2021/10/04 04:00:54;;;;;;;4.00;1.10;;;;;;;;;;5050874;28;20041;-57
2021/10/04 04:03:20;;;;;;;5.43;1.10;;;;;;;;;;5036232;28;20037;-57
2021/10/04 04:05:45;;;;;;;3.90;1.00;;;;;;;;;;5033681;28;20480;-58
2021/10/04 04:08:11;;;;;;;2.83;1.00;;;;;;;;;;5037164;28;20041;-59
2021/10/04 04:10:37;;;;;;;5.15;1.17;;;;;;;;;;5033595;28;20044;-57
2021/10/04 04:13:03;;;;;;;4.70;1.10;;;;;;;;;;5033739;28;20033;-58
2021/10/04 04:15:29;;;;;;;3.85;0.93;;;;;;;;;;5034409;28;20052;-56
2021/10/04 04:17:55;;;;;;;7.70;0.90;;;;;;;;;;5034495;28;20076;-58
2021/10/04 04:20:22;;;;;;;5.13;1.15;;;;;;;;;;5035478;28;20047;-57
2021/10/04 04:22:48;;;;;;;8.30;1.02;;;;;;;;;;5035978;28;20052;-58
2021/10/04 04:25:14;;;;;;;5.35;1.05;;;;;;;;;;5036126;28;20041;-58
2021/10/04 04:27:41;;;;;;;7.65;1.20;;;;;;;;;;5033809;28;20478;-58
2021/10/04 04:30:08;;;;;;;4.90;1.08;;;;;;;;;;5046733;28;20063;-57
2021/10/04 04:32:33;;;;;;;7.05;1.10;;;;;;;;;;5045405;28;20045;-59
2021/10/04 04:35:05;;;;;;;4.63;0.90;;;;;;;;;;5034242;28;20040;-58
2021/10/04 04:37:31;;;;;;;5.85;1.10;;;;;;;;;;5032461;28;20044;-59
2021/10/04 04:39:57;;;;;;;8.40;1.50;;;;;;;;;;5036130;28;20095;-59
2021/10/04 04:42:25;;;;;;;4.63;1.20;;;;;;;;;;5031800;28;20053;-58
2021/10/04 04:44:51;;;;;;;6.00;1.08;;;;;;;;;;5035540;28;20064;-59
2021/10/04 04:47:17;;;;;;;2.22;0.90;;;;;;;;;;5036077;28;20171;-59
2021/10/04 04:49:46;;;;;;;4.95;1.00;;;;;;;;;;5029628;28;20179;-56
2021/10/04 04:52:12;;;;;;;6.80;1.20;;;;;;;;;;5031622;28;20033;-58
2021/10/04 04:54:38;;;;;;;8.88;1.23;;;;;;;;;;5033304;28;20102;-57
2021/10/04 04:57:03;;;;;;;3.05;1.00;;;;;;;;;;5035468;28;20072;-58
2021/10/04 04:59:29;;;;;;;6.07;1.10;;;;;;;;;;5032230;28;20044;-58
2021/10/04 05:01:55;;;;;;;8.55;1.23;;;;;;;;;;5032873;28;20136;-59
2021/10/04 05:04:21;;;;;;;2.50;0.77;;;;;;;;;;5031914;28;20110;-57
2021/10/04 05:06:47;;;;;;;2.65;0.70;;;;;;;;;;5032159;28;20064;-60
2021/10/04 05:09:13;;;;;;;3.20;0.85;;;;;;;;;;5034083;28;20863;-54
2021/10/04 05:11:39;;;;;;;5.22;0.98;;;;;;;;;;5030621;28;20132;-58
2021/10/04 05:14:05;;;;;;;3.95;1.10;;;;;;;;;;5030939;28;20068;-58
2021/10/04 05:16:31;;;;;;;5.95;0.90;;;;;;;;;;5031787;28;20048;-56
2021/10/04 05:18:57;;;;;;;6.63;1.08;;;;;;;;;;5046888;28;20042;-57
2021/10/04 05:21:23;;;;;;;3.25;0.85;;;;;;;;;;5030709;28;20026;-58
2021/10/04 05:23:51;;;;;;;4.75;0.82;;;;;;;;;;5031504;28;20044;-58
2021/10/04 05:26:17;;;;;;;7.05;1.00;;;;;;;;;;5021780;28;20029;-56
2021/10/04 05:28:43;;;;;;;2.97;0.77;;;;;;;;;;5028769;28;20686;-57
2021/10/04 05:31:09;;;;;;;5.78;0.88;;;;;;;;;;5029200;28;20397;-58
2021/10/04 05:33:37;;;;;;;2.90;0.90;;;;;;;;;;5030234;28;20100;-57
2021/10/04 05:36:07;;;;;;;3.30;0.98;;;;;;;;;;5041476;28;20091;-58
2021/10/04 05:38:33;;;;;;;8.43;1.05;;;;;;;;;;5029900;28;20765;-58
2021/10/04 05:40:59;;;;;;;3.33;0.85;;;;;;;;;;5030236;28;20072;-58
2021/10/04 05:43:25;;;;;;;4.70;0.90;;;;;;;;;;5031155;28;20128;-54
2021/10/04 05:45:50;;;;;;;2.38;0.80;;;;;;;;;;5044160;28;20045;-56
2021/10/04 05:48:16;;;;;;;10.13;1.15;;;;;;;;;;5031222;28;20103;-59
2021/10/04 05:50:42;;;;;;;5.68;0.95;;;;;;;;;;5031018;28;20116;-57
2021/10/04 05:53:08;;;;;;;3.53;0.98;;;;;;;;;;5028617;28;20051;-56
2021/10/04 05:55:34;;;;;;;9.55;1.20;;;;;;;;;;5038878;28;20037;-58
2021/10/04 05:58:00;;;;;;;5.05;0.70;;;;;;;;;;5029096;28;20052;-57
2021/10/04 06:00:27;;;;;;;7.55;0.95;;;;;;;;;;5044263;28;21491;-59
2021/10/04 06:02:52;;;;;;;1.95;0.60;;;;;;;;;;5028130;28;20499;-56
2021/10/04 06:05:18;;;;;;;6.35;0.82;;;;;;;;;;5029557;28;20098;-54
2021/10/04 06:07:44;;;;;;;4.47;1.23;;;;;;;;;;5030829;28;20056;-58
2021/10/04 06:10:11;;;;;;;4.72;1.17;;;;;;;;;;5020064;28;20041;-57
2021/10/04 06:12:37;;;;;;;9.48;1.77;;;;;;;;;;5026869;28;20041;-57
2021/10/04 06:15:04;;;;;;;4.80;1.38;;;;;;;;;;5030306;28;20053;-56
2021/10/04 06:17:29;;;;;;;11.10;1.38;;;;;;;;;;5029623;28;20045;-55
2021/10/04 06:19:56;;;;;;;12.32;1.17;;;;;;;;;;5031403;28;20103;-57
2021/10/04 06:22:22;;;;;;;6.28;1.27;;;;;;;;;;5039626;28;20041;-57
2021/10/04 06:24:48;;;;;;;5.95;1.48;;;;;;;;;;5030471;28;20575;-53
2021/10/04 06:27:15;;;;;;;2.95;0.85;;;;;;;;;;5028942;28;20120;-56
2021/10/04 06:29:42;;;;;;;9.43;1.10;;;;;;;;;;5030971;28;20069;-56
2021/10/04 06:32:08;;;;;;;3.13;0.90;;;;;;;;;;5028535;28;20041;-56
2021/10/04 06:34:34;;;;;;;2.42;0.93;;;;;;;;;;5030510;28;20045;-57
2021/10/04 06:37:00;;;;;;;4.88;1.10;;;;;;;;;;5045055;28;20069;-55
2021/10/04 06:39:26;;;;;;;7.38;1.23;;;;;;;;;;5029686;28;20083;-57
2021/10/04 06:41:52;;;;;;;3.55;1.23;;;;;;;;;;5046153;28;20159;-55
2021/10/04 06:44:18;;;;;;;4.35;1.20;;;;;;;;;;5030093;28;20045;-53
2021/10/04 06:46:44;;;;;;;4.32;1.02;;;;;;;;;;5030987;28;20041;-56
2021/10/04 06:49:10;;;;;;;6.15;1.10;;;;;;;;;;5032497;28;20086;-58
2021/10/04 06:51:36;;;;;;;4.53;1.10;;;;;;;;;;5030094;28;20501;-53
2021/10/04 06:54:02;;;;;;;3.20;1.10;;;;;;;;;;5031327;28;20048;-55
2021/10/04 06:56:28;;;;;;;5.30;1.20;;;;;;;;;;5031095;28;20048;-58
2021/10/04 06:58:53;;;;;;;4.35;1.23;;;;;;;;;;5033892;28;20551;-57
2021/10/04 07:01:19;;;;;;;2.58;1.00;;;;;;;;;;5031628;28;20044;-57
2021/10/04 07:03:45;;;;;;;6.22;1.20;;;;;;;;;;5033413;28;20068;-57
2021/10/04 07:06:11;;;;;;;6.68;1.23;;;;;;;;;;5030625;28;20061;-56
2021/10/04 07:08:37;;;;;;;6.82;1.45;;;;;;;;;;5031063;28;20047;-56
2021/10/04 07:11:03;;;;;;;2.92;0.90;;;;;;;;;;5030783;28;20043;-57
2021/10/04 07:13:29;;;;;;;7.20;1.38;;;;;;;;;;5032687;28;20060;-56
2021/10/04 07:15:55;;;;;;;4.63;1.40;;;;;;;;;;5032066;28;20056;-55
2021/10/04 07:18:21;;;;;;;7.93;1.20;;;;;;;;;;5032675;28;20034;-57
2021/10/04 07:20:47;;;;;;;6.20;1.27;;;;;;;;;;5032452;28;20067;-55
2021/10/04 07:23:13;;;;;;;9.68;1.10;;;;;;;;;;5030748;28;20068;-57
2021/10/04 07:25:39;;;;;;;3.17;1.02;;;;;;;;;;5032998;28;20080;-59
2021/10/04 07:28:05;;;;;;;8.90;1.00;;;;;;;;;;5044482;28;20657;-57
2021/10/04 07:30:31;;;;;;;4.50;1.10;;;;;;;;;;5035644;28;20033;-57
2021/10/04 07:32:59;;;;;;;4.45;1.10;;;;;;;;;;5037534;28;20044;-58
2021/10/04 07:35:26;;;;;;;7.47;1.17;;;;;;;;;;5032967;28;20048;-58
2021/10/04 07:37:52;;;;;;;6.88;1.48;;;;;;;;;;5035644;28;20127;-58
2021/10/04 07:40:18;;;;;;;3.72;1.10;;;;;;;;;;5035378;28;20446;-55
2021/10/04 07:42:44;;;;;;;3.50;1.05;;;;;;;;;;5036279;28;20481;-58
2021/10/04 07:45:11;;;;;;;5.40;1.13;;;;;;;;;;5033298;28;20646;-56
2021/10/04 07:47:37;;;;;;;8.77;1.50;;;;;;;;;;5033365;28;20549;-55
2021/10/04 07:50:03;;;;;;;8.52;1.60;;;;;;;;;;5034014;28;20202;-57
2021/10/04 07:52:29;;;;;;;8.23;1.40;;;;;;;;;;5033515;28;20033;-58
2021/10/04 07:54:55;;;;;;;8.68;1.23;;;;;;;;;;5033499;28;20708;-57
2021/10/04 07:57:21;;;;;;;4.57;1.30;;;;;;;;;;5035685;28;20182;-59
2021/10/04 07:59:47;;;;;;;3.40;1.45;;;;;;;;;;5035680;28;20095;-57
2021/10/04 08:02:13;;;;;;;10.20;1.30;;;;;;;;;;5035321;28;20544;-58
2021/10/04 08:04:39;;;;;;;4.70;1.23;;;;;;;;;;5035271;28;20045;-57
2021/10/04 08:07:05;;;;;;;6.20;1.30;;;;;;;;;;5054603;28;20037;-56
2021/10/04 08:09:31;;;;;;;4.20;1.33;;;;;;;;;;5036235;28;20037;-55
2021/10/04 08:11:57;;;;;;;4.82;1.38;;;;;;;;;;5046367;28;20175;-56
2021/10/04 08:14:23;;;;;;;4.28;1.55;;;;;;;;;;5035982;28;20040;-51
2021/10/04 08:16:49;;;;;;;4.10;1.33;;;;;;;;;;5034208;28;20094;-58
2021/10/04 08:19:15;;;;;;;3.28;1.10;;;;;;;;;;5034536;28;20032;-54
2021/10/04 08:21:41;;;;;;;3.97;1.15;;;;;;;;;;5033175;28;20049;-58
2021/10/04 08:24:07;;;;;;;4.03;1.20;;;;;;;;;;5042616;28;20041;-57
2021/10/04 08:26:33;;;;;;;5.82;1.50;;;;;;;;;;5042555;28;20033;-56
2021/10/04 08:28:59;;;;;;;4.88;1.25;;;;;;;;;;5036130;28;20475;-55
2021/10/04 08:31:34;;;;;;;4.32;1.20;;;;;;;;;;5035497;28;20033;-54
2021/10/04 08:34:01;;;;;;;4.07;1.20;;;;;;;;;;5034416;28;20281;-57
2021/10/04 08:36:28;;;;;;;8.73;1.40;;;;;;;;;;5033479;28;20421;-54
2021/10/04 08:38:54;;;;;;;4.20;1.27;;;;;;;;;;5031944;28;20192;-57
2021/10/04 08:41:21;;;;;;;4.00;1.15;;;;;;;;;;5030572;28;20788;-57
2021/10/04 08:43:50;;;;;;;2.53;1.02;;;;;;;;;;5033759;28;20516;-57
2021/10/04 08:46:16;;;;;;;3.05;0.90;;;;;;;;;;5032814;28;20902;-53
2021/10/04 08:48:43;;;;;;;3.60;1.05;;;;;;;;;;5034328;28;20041;-58
2021/10/04 08:51:10;;;;;;;2.55;0.90;;;;;;;;;;5044690;28;20033;-57
2021/10/04 08:53:37;;;;;;;2.97;1.00;;;;;;;;;;5032910;28;20055;-57
2021/10/04 08:56:03;;;;;;;2.90;0.88;;;;;;;;;;5042709;28;20033;-56
2021/10/04 08:58:32;;;;;;;3.60;1.08;;;;;;;;;;5031542;28;20037;-58
2021/10/04 09:00:58;;;;;;;2.10;0.80;;;;;;;;;;5033319;28;20037;-54
2021/10/04 09:03:24;;;;;;;2.72;0.90;;;;;;;;;;5030897;28;20215;-57
2021/10/04 09:05:56;;;;;;;2.78;0.90;;;;;;;;;;5030992;28;20048;-58
2021/10/04 09:08:22;;;;;;;3.40;1.25;;;;;;;;;;5035230;28;20040;-57
2021/10/04 09:10:55;;;;;;;2.90;0.90;;;;;;;;;;5038478;28;20044;-56
2021/10/04 09:13:21;;;;;;;7.07;0.80;;;;;;;;;;5029987;28;20059;-56
2021/10/04 09:15:47;;;;;;;6.43;1.00;;;;;;;;;;5031595;28;20490;-54
2021/10/04 09:18:25;;;;;;;2.20;0.70;;;;;;;;;;5033555;28;20060;-56
2021/10/04 09:20:53;;;;;;;4.82;1.00;;;;;;;;;;5032273;28;20048;-56
2021/10/04 09:23:34;;;;;;;3.13;0.68;;;;;;;;;;5049262;28;20029;-56
2021/10/04 09:26:04;;;;;;;5.32;1.00;;;;;;;;;;5033601;28;20139;-55
2021/10/04 09:28:31;;;;;;;2.20;0.75;;;;;;;;;;5033356;28;20037;-56
2021/10/04 09:31:16;;;;;;;2.42;0.85;;;;;;;;;;5034847;28;20141;-57
2021/10/04 09:34:00;;;;;;;7.03;1.00;;;;;;;;;;5032169;28;20362;-56
2021/10/04 09:36:30;;;;;;;2.88;0.90;;;;;;;;;;5034090;28;20052;-57
2021/10/04 09:39:13;;;;;;;2.63;0.90;;;;;;;;;;5033031;28;20547;-56
2021/10/04 09:41:59;;;;;;;3.55;1.00;;;;;;;;;;5042554;28;20045;-56
2021/10/04 09:44:26;;;;;;;3.50;0.90;;;;;;;;;;5032642;28;20091;-58
2021/10/04 09:46:53;;;;;;;2.22;0.80;;;;;;;;;;5034010;28;20041;-58
2021/10/04 09:49:19;;;;;;;5.40;0.77;;;;;;;;;;5032607;28;20599;-57
2021/10/04 09:51:52;;;;;;;3.95;1.00;;;;;;;;;;5048643;28;20044;-55
2021/10/04 09:54:18;;;;;;;4.90;0.98;;;;;;;;;;5031427;28;20121;-57
2021/10/04 09:56:45;;;;;;;5.05;0.93;;;;;;;;;;5032358;28;20061;-58
2021/10/04 09:59:11;;;;;;;2.22;0.80;;;;;;;;;;5034933;28;20034;-56
2021/10/04 10:01:38;;;;;;;2.90;0.85;;;;;;;;;;5034785;28;20045;-57
2021/10/04 10:04:04;;;;;;;6.47;0.90;;;;;;;;;;5035361;28;20033;-59
2021/10/04 10:06:33;;;;;;;6.20;1.00;;;;;;;;;;5035672;28;20032;-53
2021/10/04 10:08:59;;;;;;;1.70;0.70;;;;;;;;;;5035180;28;20108;-56
2021/10/04 10:11:28;;;;;;;6.78;1.00;;;;;;;;;;5036080;28;20049;-58
2021/10/04 10:13:54;;;;;;;7.10;1.00;;;;;;;;;;5032277;28;20043;-59
2021/10/04 10:16:23;;;;;;;2.60;0.82;;;;;;;;;;5041051;28;20049;-56
2021/10/04 10:18:59;;;;;;;2.20;0.80;;;;;;;;;;5034555;28;20168;-54
2021/10/04 10:21:26;;;;;;;2.78;1.00;;;;;;;;;;5034499;28;20032;-57
2021/10/04 10:23:53;;;;;;;2.20;0.70;;;;;;;;;;5034137;28;20079;-57
2021/10/04 10:26:30;;;;;;;1.75;0.60;;;;;;;;;;5034579;28;20036;-58
2021/10/04 10:29:13;;;;;;;5.22;0.90;;;;;;;;;;5033714;28;20086;-58
2021/10/04 10:31:51;;;;;;;3.50;1.00;;;;;;;;;;5033626;28;20041;-57
2021/10/04 10:34:32;;;;;;;3.78;0.82;;;;;;;;;;5033836;28;20037;-53
2021/10/04 10:36:59;;;;;;;4.70;1.00;;;;;;;;;;5033589;28;20053;-52
2021/10/04 10:39:38;;;;;;;2.70;1.00;;;;;;;;;;5031855;28;21114;-58
2021/10/04 10:42:12;;;;;;;5.03;0.80;;;;;;;;;;5031833;28;20049;-59
2021/10/04 10:44:59;;;;;;;3.67;1.20;;;;;;;;;;5032864;28;20041;-55
2021/10/04 10:47:37;;;;;;;5.32;1.20;;;;;;;;;;5034732;28;20437;-57
2021/10/04 10:50:10;;;;;;;3.30;1.20;;;;;;;;;;5033858;28;20048;-57
2021/10/04 10:52:36;;;;;;;;;;;;;;;;;;5035789;28;20124;-57
2021/10/04 10:55:22;;;;;;;3.40;1.00;;;;;;;;;;5037135;28;19992;-58
2021/10/04 10:57:51;;;;;;;2.80;0.80;;;;;;;;;;5037433;28;20124;-58
2021/10/04 11:00:18;;;;;;;1.98;0.70;;;;;;;;;;5042248;28;20041;-55
2021/10/04 11:02:47;;;;;;;3.60;1.15;;;;;;;;;;5039663;28;20094;-55
2021/10/04 11:05:31;;;;;;;5.03;1.00;;;;;;;;;;5041129;28;20033;-58
2021/10/04 11:07:57;;;;;;;4.32;1.17;;;;;;;;;;5040880;28;20099;-56
2021/10/04 11:10:23;;;;;;;4.53;1.20;;;;;;;;;;5039938;28;20493;-56
2021/10/04 11:13:07;;;;;;;4.75;0.90;;;;;;;;;;5043364;28;20116;-57
2021/10/04 11:15:33;;;;;;;7.40;1.30;;;;;;;;;;5039356;28;20049;-57
2021/10/04 11:17:59;;;;;;;3.35;1.13;;;;;;;;;;5039727;28;20037;-58
2021/10/04 11:20:25;;;;;;;4.47;1.42;;;;;;;;;;5041088;28;20045;-56
2021/10/04 11:23:01;;;;;;;4.00;1.15;;;;;;;;;;5038782;28;20037;-56
2021/10/04 11:25:27;;;;;;;5.43;1.08;;;;;;;;;;5039715;28;20044;-57
2021/10/04 11:27:53;;;;;;;3.42;1.20;;;;;;;;;;5036090;28;20044;-57
2021/10/04 11:30:18;;;;;;;2.67;1.00;;;;;;;;;;5038080;28;20421;-57
2021/10/04 11:33:02;;;;;;;4.78;1.10;;;;;;;;;;5041192;28;20100;-57
2021/10/04 11:35:28;;;;;;;3.78;1.20;;;;;;;;;;5040740;28;20053;-55
2021/10/04 11:37:54;;;;;;;3.90;1.20;;;;;;;;;;5033042;28;20036;-58
2021/10/04 11:40:21;;;;;;;3.85;1.17;;;;;;;;;;5046652;28;20099;-58
2021/10/04 11:42:47;;;;;;;4.68;1.50;;;;;;;;;;5037108;28;20048;-56
2021/10/04 11:45:12;;;;;;;4.47;1.30;;;;;;;;;;5035610;28;20041;-58
2021/10/04 11:47:41;;;;;;;10.15;1.52;;;;;;;;;;5036016;28;20049;-55
2021/10/04 11:50:11;;;;;;;3.90;1.20;;;;;;;;;;5051918;28;20041;-58
2021/10/04 11:52:37;;;;;;;5.75;1.50;;;;;;;;;;5034987;28;20033;-54
2021/10/04 11:55:08;;;;;;;5.75;1.50;;;;;;;;;;5034896;28;20029;-57
2021/10/04 11:57:36;;;;;;;6.25;2.00;;;;;;;;;;5035143;28;20047;-57
2021/10/04 12:00:12;;;;;;;6.60;1.70;;;;;;;;;;5034422;28;20111;-54
2021/10/04 12:02:48;;;;;;;10.50;1.70;;;;;;;;;;5033954;28;20051;-55
2021/10/04 12:05:14;;;;;;;2.90;1.00;;;;;;;;;;5033072;28;20055;-56
2021/10/04 12:07:59;;;;;;;5.07;1.48;;;;;;;;;;5048985;28;20049;-56
2021/10/04 12:10:36;;;;;;;3.97;1.40;;;;;;;;;;5031789;28;20044;-53
2021/10/04 12:13:02;;;;;;;9.07;1.70;;;;;;;;;;5036522;28;20029;-56
2021/10/04 12:15:28;;;;;;;3.88;1.40;;;;;;;;;;5034914;28;20110;-58
2021/10/04 12:17:54;;;;;;;4.88;1.40;;;;;;;;;;5035538;28;20232;-57
2021/10/04 12:20:23;;;;;;;6.90;2.75;;;;;;;;;;5032155;28;20531;-59
2021/10/04 12:22:49;;;;;;;11.57;4.28;;;;;;;;;;5035574;28;20118;-58
2021/10/04 12:25:29;;;;;;;12.23;3.00;;;;;;;;;;5036549;28;20059;-58
2021/10/04 12:28:05;;;;;;;4.45;1.70;;;;;;;;;;5034369;28;20066;-58
2021/10/04 12:30:49;;;;;;;8.65;2.00;;;;;;;;;;5034468;28;20098;-55
2021/10/04 12:33:15;;;;;;;7.47;1.65;;;;;;;;;;5035049;28;20512;-58
2021/10/04 12:35:41;;;;;;;5.50;1.88;;;;;;;;;;5036725;28;20518;-58
2021/10/04 12:38:17;;;;;;;5.45;1.90;;;;;;;;;;5032835;28;20045;-55
2021/10/04 12:40:44;;;;;;;4.25;1.48;;;;;;;;;;5033650;28;20051;-58
2021/10/04 12:43:15;;;;;;;7.53;1.70;;;;;;;;;;5034026;28;20025;-59
2021/10/04 12:46:01;;;;;;;6.18;2.15;;;;;;;;;;5034085;28;20181;-55
2021/10/04 12:48:28;;;;;;;20.48;5.85;;;;;;;;;;5034273;28;20045;-57
2021/10/04 12:51:19;;;;;;;8.98;1.90;;;;;;;;;;5035136;28;20119;-57
2021/10/04 12:53:46;;;;;;;11.32;1.80;;;;;;;;;;5026408;28;20044;-58
2021/10/04 12:56:13;;;;;;;9.93;1.67;;;;;;;;;;5032562;28;20125;-57
2021/10/04 12:58:39;;;;;;;5.25;1.80;;;;;;;;;;5032188;28;20079;-57
2021/10/04 13:01:13;;;;;;;7.35;1.88;;;;;;;;;;5031665;28;20230;-56
2021/10/04 13:03:49;;;;;;;8.00;1.67;;;;;;;;;;5031435;28;20111;-57
2021/10/04 13:06:15;;;;;;;3.95;1.50;;;;;;;;;;5050965;28;20218;-55
2021/10/04 13:08:41;;;;;;;5.60;1.77;;;;;;;;;;5025842;28;20143;-55
2021/10/04 13:11:07;;;;;;;5.88;2.10;;;;;;;;;;5034184;28;20128;-58
2021/10/04 13:13:32;;;;;;;10.63;1.40;;;;;;;;;;5033718;28;22133;-54
2021/10/04 13:15:58;;;;;;;3.50;1.30;;;;;;;;;;5033809;28;20121;-58
2021/10/04 13:18:24;;;;;;;4.97;1.40;;;;;;;;;;5033965;28;20650;-57
2021/10/04 13:20:50;;;;;;;5.38;1.63;;;;;;;;;;5036755;28;20037;-56
2021/10/04 13:23:16;;;;;;;5.22;1.33;;;;;;;;;;5047172;28;20029;-52
2021/10/04 13:25:42;;;;;;;8.25;1.40;;;;;;;;;;5035836;28;20807;-57
2021/10/04 13:28:08;;;;;;;4.20;1.50;;;;;;;;;;5035828;28;20175;-53
2021/10/04 13:30:34;;;;;;;7.88;1.40;;;;;;;;;;5035643;28;20041;-57
2021/10/04 13:32:59;;;;;;;6.55;1.60;;;;;;;;;;5036637;28;20041;-57
2021/10/04 13:35:25;;;;;;;21.63;2.33;;;;;;;;;;5035562;28;20048;-57
2021/10/04 13:37:51;;;;;;;7.60;1.40;;;;;;;;;;5034642;28;20046;-59
2021/10/04 13:40:17;;;;;;;6.25;1.50;;;;;;;;;;5034455;28;20045;-58
2021/10/04 13:42:43;;;;;;;8.60;2.22;;;;;;;;;;5035069;28;20040;-57
2021/10/04 13:45:09;;;;;;;11.32;2.00;;;;;;;;;;5048873;28;20030;-58
2021/10/04 13:47:35;;;;;;;11.25;2.00;;;;;;;;;;5034321;28;20056;-57
2021/10/04 13:50:02;;;;;;;6.28;1.60;;;;;;;;;;5052497;28;20397;-57
2021/10/04 13:52:30;;;;;;;6.50;1.85;;;;;;;;;;5033274;28;20129;-56
2021/10/04 13:54:56;;;;;;;14.43;2.58;;;;;;;;;;5035519;28;20068;-61
2021/10/04 13:57:22;;;;;;;5.68;2.05;;;;;;;;;;5032853;28;20119;-56
2021/10/04 13:59:48;;;;;;;5.68;1.85;;;;;;;;;;5034303;28;20044;-56
2021/10/04 14:02:14;;;;;;;6.28;1.73;;;;;;;;;;5033128;28;20048;-57
2021/10/04 14:04:40;;;;;;;8.30;2.10;;;;;;;;;;5038896;28;20098;-57
2021/10/04 14:07:06;;;;;;;13.90;2.33;;;;;;;;;;5027843;28;20049;-57
2021/10/04 14:09:32;;;;;;;6.20;2.15;;;;;;;;;;5026904;28;20458;-58
2021/10/04 14:11:59;;;;;;;9.00;2.42;;;;;;;;;;5027423;28;20048;-59
2021/10/04 14:14:25;;;;;;;9.90;2.55;;;;;;;;;;5025639;28;20041;-57
2021/10/04 14:16:50;;;;;;;10.20;2.60;;;;;;;;;;5027180;28;20400;-58
2021/10/04 14:19:16;;;;;;;8.15;2.97;;;;;;;;;;5028056;28;20056;-53
2021/10/04 14:21:42;;;;;;;8.75;2.60;;;;;;;;;;5025805;28;20029;-59
2021/10/04 14:24:08;;;;;;;10.20;2.90;;;;;;;;;;5026107;28;20042;-56
2021/10/04 14:26:34;;;;;;;14.63;2.80;;;;;;;;;;5023634;28;20087;-57
2021/10/04 14:29:00;;;;;;;21.73;3.25;;;;;;;;;;5023636;28;20037;-56
2021/10/04 14:31:25;;;;;;;16.30;3.22;;;;;;;;;;5025557;28;20037;-58
2021/10/04 14:33:51;;;;;;;14.90;3.33;;;;;;;;;;5029500;28;20046;-57
2021/10/04 14:36:17;;;;;;;23.45;3.10;;;;;;;;;;5030742;28;20178;-58
2021/10/04 14:38:43;;;;;;;8.75;3.05;;;;;;;;;;5029134;28;20068;-57
2021/10/04 14:41:09;;;;;;;19.95;2.92;;;;;;;;;;5029558;28;20045;-56
2021/10/04 14:43:35;;;;;;;12.15;2.53;;;;;;;;;;5030369;28;20598;-54
2021/10/04 14:46:01;;;;;;;8.73;2.33;;;;;;;;;;5030380;28;20090;-58